createdAt,value
2018-05-29T00:00:03.507Z,73.22
2018-05-29T00:01:03.500Z,72.94
2018-05-29T00:02:03.494Z,72.84
2018-05-29T00:03:03.476Z,72.64
2018-05-29T00:04:03.467Z,72.94
2018-05-29T00:05:03.608Z,73.22
2018-05-29T00:06:03.441Z,73.22
2018-05-29T00:07:03.430Z,73.32
2018-05-29T00:08:03.437Z,73.03
2018-05-29T00:09:03.411Z,73.13
2018-05-29T00:10:03.399Z,73.03
2018-05-29T00:11:03.388Z,73.77
2018-05-29T00:12:03.377Z,73.71
2018-05-29T00:13:03.369Z,73.58
2018-05-29T00:14:03.365Z,73.32
2018-05-29T00:15:03.349Z,73.61
2018-05-29T00:16:03.338Z,73.32
2018-05-29T00:17:03.325Z,73.42
2018-05-29T00:18:03.319Z,73.71
2018-05-29T00:19:03.302Z,73.38
2018-05-29T00:20:03.291Z,73.71
2018-05-29T00:21:03.280Z,73.48
2018-05-29T00:22:03.269Z,73.22
2018-05-29T00:23:03.266Z,72.94
2018-05-29T00:24:03.250Z,73.32
2018-05-29T00:25:03.242Z,73.52
2018-05-29T00:26:03.234Z,73.61
2018-05-29T00:27:03.218Z,73.22
2018-05-29T00:28:03.208Z,73.13
2018-05-29T00:29:03.304Z,73.67
2018-05-29T00:30:03.199Z,73.86
2018-05-29T00:31:03.175Z,73.96
2018-05-29T00:32:03.172Z,74.06
2018-05-29T00:33:03.159Z,73.86
2018-05-29T00:34:03.145Z,73.58
2018-05-29T00:35:03.136Z,73.96
2018-05-29T00:36:03.125Z,73.96
2018-05-29T00:37:03.117Z,74.16
2018-05-29T00:38:03.099Z,73.96
2018-05-29T00:39:03.098Z,73.96
2018-05-29T00:40:03.084Z,73.96
2018-05-29T00:41:03.065Z,73.86
2018-05-29T00:42:03.064Z,73.77
2018-05-29T00:43:03.048Z,74.06
2018-05-29T00:44:03.040Z,73.96
2018-05-29T00:45:03.081Z,73.67
2018-05-29T00:46:03.017Z,74.06
2018-05-29T00:47:03.009Z,73.86
2018-05-29T00:48:02.991Z,73.96
2018-05-29T00:49:02.989Z,74.16
2018-05-29T00:50:02.970Z,73.77
2018-05-29T00:51:02.967Z,73.58
2018-05-29T00:52:02.950Z,73.96
2018-05-29T00:53:02.942Z,73.86
2018-05-29T00:54:02.930Z,73.86
2018-05-29T00:55:02.916Z,73.58
2018-05-29T00:56:02.909Z,73.86
2018-05-29T00:57:02.900Z,74.16
2018-05-29T00:58:02.890Z,73.86
2018-05-29T00:59:02.875Z,74.16
2018-05-29T01:00:02.866Z,74.44
2018-05-29T01:01:02.853Z,74.54
2018-05-29T01:02:02.843Z,74.54
2018-05-29T01:03:02.834Z,74.83
2018-05-29T01:04:02.818Z,75.12
2018-05-29T01:05:02.811Z,74.54
2018-05-29T01:06:02.800Z,74.54
2018-05-29T01:07:02.791Z,74.73
2018-05-29T01:08:02.780Z,74.73
2018-05-29T01:09:02.771Z,74.83
2018-05-29T01:10:02.757Z,74.64
2018-05-29T01:11:02.749Z,75.09
2018-05-29T01:12:02.740Z,74.83
2018-05-29T01:13:02.725Z,74.73
2018-05-29T01:14:02.716Z,74.99
2018-05-29T01:15:02.708Z,74.99
2018-05-29T01:16:02.694Z,74.99
2018-05-29T01:17:02.681Z,75.57
2018-05-29T01:18:02.671Z,75.57
2018-05-29T01:19:02.670Z,76.43
2018-05-29T01:20:02.651Z,76.68
2018-05-29T01:21:02.638Z,77.36
2018-05-29T01:22:02.733Z,76.78
2018-05-29T01:23:02.625Z,77.42
2018-05-29T01:24:02.609Z,77.51
2018-05-29T01:25:02.595Z,78.09
2018-05-29T01:26:02.601Z,78.86
2018-05-29T01:27:02.574Z,78.48
2018-05-29T01:28:02.567Z,78.96
2018-05-29T01:29:02.552Z,78.96
2018-05-29T01:30:02.541Z,78.77
2018-05-29T01:31:02.537Z,79.16
2018-05-29T01:32:02.530Z,78.58
2018-05-29T01:33:02.508Z,78.29
2018-05-29T01:34:02.500Z,78.58
2018-05-29T01:35:02.497Z,78.19
2018-05-29T01:36:02.475Z,78.00
2018-05-29T01:37:02.467Z,78.09
2018-05-29T01:38:02.546Z,78.09
2018-05-29T01:39:02.444Z,77.81
2018-05-29T01:40:02.433Z,77.61
2018-05-29T01:41:02.421Z,77.61
2018-05-29T01:42:02.409Z,78.00
2018-05-29T01:43:02.404Z,78.00
2018-05-29T01:44:02.394Z,77.90
2018-05-29T01:45:02.378Z,77.75
2018-05-29T01:46:02.370Z,78.00
2018-05-29T01:47:02.361Z,77.71
2018-05-29T01:48:02.346Z,77.90
2018-05-29T01:49:02.335Z,78.00
2018-05-29T01:50:02.327Z,78.48
2018-05-29T01:51:02.319Z,78.58
2018-05-29T01:52:02.300Z,78.29
2018-05-29T01:53:02.291Z,78.58
2018-05-29T01:54:02.379Z,78.29
2018-05-29T01:55:02.269Z,78.48
2018-05-29T01:56:02.256Z,78.58
2018-05-29T01:57:02.254Z,78.42
2018-05-29T01:58:02.238Z,78.42
2018-05-29T01:59:02.226Z,78.52
2018-05-29T02:00:02.224Z,78.42
2018-05-29T02:01:02.203Z,77.94
2018-05-29T02:02:02.191Z,78.03
2018-05-29T02:03:02.193Z,77.65
2018-05-29T02:04:02.172Z,77.65
2018-05-29T02:05:02.157Z,77.36
2018-05-29T02:06:02.151Z,77.42
2018-05-29T02:07:02.145Z,78.38
2018-05-29T02:08:02.126Z,79.06
2018-05-29T02:09:02.116Z,79.31
2018-05-29T02:10:02.109Z,80.27
2018-05-29T02:11:02.093Z,80.76
2018-05-29T02:12:02.079Z,80.66
2018-05-29T02:13:02.071Z,81.33
2018-05-29T02:14:02.065Z,81.24
2018-05-29T02:15:02.064Z,81.43
2018-05-29T02:16:02.038Z,81.52
2018-05-29T02:17:02.023Z,81.62
2018-05-29T02:18:02.025Z,81.52
2018-05-29T02:19:02.001Z,81.24
2018-05-29T02:20:01.992Z,80.66
2018-05-29T02:21:01.978Z,81.43
2018-05-29T02:22:01.970Z,81.24
2018-05-29T02:23:01.961Z,80.85
2018-05-29T02:24:01.943Z,79.98
2018-05-29T02:25:01.938Z,80.56
2018-05-29T02:26:01.928Z,81.20
2018-05-29T02:27:01.915Z,82.26
2018-05-29T02:28:01.899Z,82.74
2018-05-29T02:29:01.889Z,83.41
2018-05-29T02:30:01.885Z,83.89
2018-05-29T02:31:01.924Z,84.28
2018-05-29T02:32:01.861Z,84.47
2018-05-29T02:33:01.847Z,83.80
2018-05-29T02:34:01.837Z,83.89
2018-05-29T02:35:01.821Z,84.18
2018-05-29T02:36:01.811Z,84.18
2018-05-29T02:37:01.797Z,84.09
2018-05-29T02:38:01.785Z,83.51
2018-05-29T02:39:01.789Z,83.41
2018-05-29T02:40:01.762Z,84.05
2018-05-29T02:41:01.755Z,84.33
2018-05-29T02:42:01.737Z,84.72
2018-05-29T02:43:01.732Z,84.81
2018-05-29T02:44:01.717Z,84.91
2018-05-29T02:45:01.717Z,85.68
2018-05-29T02:46:01.699Z,85.49
2018-05-29T02:47:01.823Z,85.49
2018-05-29T02:48:01.700Z,85.68
2018-05-29T02:49:01.661Z,85.20
2018-05-29T02:50:01.650Z,85.58
2018-05-29T02:51:01.636Z,85.00
2018-05-29T02:52:01.629Z,83.85
2018-05-29T02:53:01.613Z,84.14
2018-05-29T02:54:01.602Z,85.49
2018-05-29T02:55:01.593Z,85.39
2018-05-29T02:56:01.582Z,85.10
2018-05-29T02:57:01.566Z,85.49
2018-05-29T02:58:01.558Z,85.39
2018-05-29T02:59:01.551Z,84.91
2018-05-29T03:00:01.631Z,85.49
2018-05-29T03:01:01.522Z,85.30
2018-05-29T03:02:01.510Z,85.39
2018-05-29T03:03:01.499Z,85.49
2018-05-29T03:04:01.485Z,85.30
2018-05-29T03:05:01.482Z,84.62
2018-05-29T03:06:01.462Z,84.81
2018-05-29T03:07:01.451Z,84.14
2018-05-29T03:08:01.488Z,84.33
2018-05-29T03:09:01.430Z,84.47
2018-05-29T03:10:01.421Z,83.80
2018-05-29T03:11:01.408Z,83.61
2018-05-29T03:12:01.393Z,83.31
2018-05-29T03:13:01.383Z,83.80
2018-05-29T03:14:01.374Z,83.80
2018-05-29T03:15:01.359Z,83.41
2018-05-29T03:16:01.354Z,82.83
2018-05-29T03:17:01.339Z,83.41
2018-05-29T03:18:01.323Z,83.41
2018-05-29T03:19:01.311Z,83.41
2018-05-29T03:20:01.303Z,83.41
2018-05-29T03:21:01.381Z,81.96
2018-05-29T03:22:01.288Z,81.77
2018-05-29T03:23:01.264Z,82.16
2018-05-29T03:24:01.326Z,83.37
2018-05-29T03:25:01.240Z,83.95
2018-05-29T03:26:01.231Z,83.61
2018-05-29T03:27:01.224Z,83.08
2018-05-29T03:28:01.209Z,83.18
2018-05-29T03:29:01.195Z,83.72
2018-05-29T03:30:01.189Z,83.81
2018-05-29T03:31:01.178Z,85.16
2018-05-29T03:32:01.163Z,84.97
2018-05-29T03:33:01.147Z,85.16
2018-05-29T03:34:01.142Z,85.44
2018-05-29T03:35:01.127Z,85.25
2018-05-29T03:36:01.121Z,85.25
2018-05-29T03:37:01.104Z,85.83
2018-05-29T03:38:01.095Z,85.98
2018-05-29T03:39:01.076Z,85.98
2018-05-29T03:40:01.066Z,86.51
2018-05-29T03:41:01.057Z,86.41
2018-05-29T03:42:01.043Z,86.41
2018-05-29T03:43:01.095Z,86.41
2018-05-29T03:44:01.021Z,86.51
2018-05-29T03:45:01.014Z,86.69
2018-05-29T03:46:00.993Z,86.79
2018-05-29T03:47:00.988Z,86.79
2018-05-29T03:48:00.971Z,86.83
2018-05-29T03:49:00.963Z,86.93
2018-05-29T03:50:00.950Z,86.74
2018-05-29T03:51:00.942Z,86.83
2018-05-29T03:52:00.930Z,86.35
2018-05-29T03:53:00.912Z,85.87
2018-05-29T03:54:00.902Z,86.74
2018-05-29T03:55:00.890Z,85.87
2018-05-29T03:56:00.879Z,85.87
2018-05-29T03:57:00.868Z,85.91
2018-05-29T03:58:00.853Z,86.01
2018-05-29T03:59:00.844Z,85.14
2018-05-29T04:00:00.832Z,85.63
2018-05-29T04:01:00.828Z,85.63
2018-05-29T04:02:00.808Z,86.01
2018-05-29T04:03:00.798Z,85.14
2018-05-29T04:04:00.882Z,84.66
2018-05-29T04:05:00.771Z,85.24
2018-05-29T04:06:00.758Z,84.47
2018-05-29T04:07:00.752Z,84.66
2018-05-29T04:08:00.735Z,83.70
2018-05-29T04:09:00.726Z,83.99
2018-05-29T04:10:00.775Z,84.12
2018-05-29T04:11:00.703Z,84.47
2018-05-29T04:12:00.687Z,83.61
2018-05-29T04:13:00.687Z,84.22
2018-05-29T04:14:00.663Z,84.28
2018-05-29T04:15:00.652Z,83.55
2018-05-29T04:16:00.642Z,84.03
2018-05-29T04:17:00.653Z,83.45
2018-05-29T04:18:00.618Z,83.55
2018-05-29T04:19:00.607Z,83.26
2018-05-29T04:20:00.671Z,83.16
2018-05-29T04:21:00.581Z,83.45
2018-05-29T04:22:00.572Z,83.16
2018-05-29T04:23:00.563Z,83.16
2018-05-29T04:24:00.549Z,82.78
2018-05-29T04:25:00.534Z,82.59
2018-05-29T04:26:00.530Z,83.26
2018-05-29T04:27:00.513Z,83.36
2018-05-29T04:28:00.499Z,82.87
2018-05-29T04:29:00.491Z,82.10
2018-05-29T04:30:00.482Z,82.82
2018-05-29T04:31:00.464Z,82.59
2018-05-29T04:32:00.465Z,82.62
2018-05-29T04:33:00.440Z,82.34
2018-05-29T04:34:00.429Z,82.72
2018-05-29T04:35:00.422Z,81.85
2018-05-29T04:36:00.411Z,81.85
2018-05-29T04:37:00.398Z,82.72
2018-05-29T04:38:00.386Z,81.95
2018-05-29T04:39:00.397Z,81.85
2018-05-29T04:40:00.361Z,82.24
2018-05-29T04:41:00.347Z,81.95
2018-05-29T04:42:00.338Z,81.47
2018-05-29T04:43:00.324Z,81.37
2018-05-29T04:44:00.415Z,81.27
2018-05-29T04:45:00.300Z,81.18
2018-05-29T04:46:00.290Z,81.37
2018-05-29T04:47:00.317Z,81.47
2018-05-29T04:48:00.267Z,81.37
2018-05-29T04:49:00.263Z,81.95
2018-05-29T04:50:00.244Z,81.57
2018-05-29T04:51:00.231Z,82.05
2018-05-29T04:52:00.220Z,81.37
2018-05-29T04:53:00.210Z,81.47
2018-05-29T04:54:00.198Z,82.14
2018-05-29T04:55:00.195Z,81.76
2018-05-29T04:56:00.175Z,81.95
2018-05-29T04:57:00.164Z,82.24
2018-05-29T04:58:00.152Z,82.05
2018-05-29T04:59:00.140Z,82.34
2018-05-29T05:00:00.131Z,81.95
2018-05-29T05:01:00.118Z,81.27
2018-05-29T05:02:00.111Z,81.47
2018-05-29T05:03:00.197Z,81.37
2018-05-29T05:04:00.079Z,80.99
2018-05-29T05:05:00.069Z,81.47
2018-05-29T05:06:00.061Z,81.95
2018-05-29T05:07:00.049Z,81.76
2018-05-29T05:08:00.038Z,80.99
2018-05-29T05:09:00.038Z,81.37
2018-05-29T05:10:00.011Z,81.47
2018-05-29T05:11:00.010Z,81.37
2018-05-29T05:11:59.994Z,81.47
2018-05-29T05:12:59.976Z,81.09
2018-05-29T05:13:59.969Z,80.35
2018-05-29T05:14:59.952Z,80.69
2018-05-29T05:15:59.946Z,81.32
2018-05-29T05:16:59.939Z,80.54
2018-05-29T05:17:59.921Z,80.79
2018-05-29T05:18:59.945Z,80.45
2018-05-29T05:19:59.903Z,80.99
2018-05-29T05:20:59.892Z,80.54
2018-05-29T05:21:59.875Z,80.74
2018-05-29T05:22:59.858Z,80.74
2018-05-29T05:23:59.854Z,80.74
2018-05-29T05:24:59.848Z,80.26
2018-05-29T05:25:59.829Z,80.16
2018-05-29T05:26:59.815Z,80.26
2018-05-29T05:27:59.806Z,79.97
2018-05-29T05:28:59.792Z,80.06
2018-05-29T05:29:59.786Z,79.29
2018-05-29T05:30:59.770Z,78.91
2018-05-29T05:31:59.762Z,78.81
2018-05-29T05:32:59.747Z,79.10
2018-05-29T05:33:59.742Z,78.81
2018-05-29T05:34:59.724Z,78.81
2018-05-29T05:35:59.715Z,79.14
2018-05-29T05:36:59.703Z,78.66
2018-05-29T05:37:59.692Z,78.75
2018-05-29T05:38:59.678Z,78.75
2018-05-29T05:39:59.766Z,78.46
2018-05-29T05:40:59.656Z,78.36
2018-05-29T05:41:59.643Z,78.27
2018-05-29T05:42:59.643Z,78.27
2018-05-29T05:43:59.625Z,78.66
2018-05-29T05:44:59.612Z,78.56
2018-05-29T05:45:59.606Z,78.27
2018-05-29T05:46:59.602Z,78.56
2018-05-29T05:47:59.575Z,78.36
2018-05-29T05:48:59.564Z,77.88
2018-05-29T05:49:59.552Z,78.17
2018-05-29T05:50:59.547Z,77.88
2018-05-29T05:51:59.543Z,77.21
2018-05-29T05:52:59.517Z,77.88
2018-05-29T05:53:59.512Z,77.11
2018-05-29T05:54:59.495Z,77.88
2018-05-29T05:55:59.490Z,77.63
2018-05-29T05:56:59.471Z,76.82
2018-05-29T05:57:59.465Z,77.11
2018-05-29T05:58:59.513Z,77.25
2018-05-29T05:59:59.445Z,77.05
2018-05-29T06:00:59.423Z,77.34
2018-05-29T06:01:59.417Z,76.86
2018-05-29T06:02:59.405Z,77.34
2018-05-29T06:03:59.397Z,76.86
2018-05-29T06:04:59.380Z,77.05
2018-05-29T06:05:59.369Z,77.05
2018-05-29T06:06:59.363Z,77.44
2018-05-29T06:07:59.345Z,76.57
2018-05-29T06:08:59.333Z,77.25
2018-05-29T06:09:59.335Z,76.47
2018-05-29T06:10:59.310Z,76.37
2018-05-29T06:11:59.301Z,76.76
2018-05-29T06:12:59.289Z,76.67
2018-05-29T06:13:59.278Z,75.70
2018-05-29T06:14:59.272Z,76.12
2018-05-29T06:15:59.322Z,76.42
2018-05-29T06:16:59.249Z,77.00
2018-05-29T06:17:59.232Z,75.74
2018-05-29T06:18:59.222Z,76.03
2018-05-29T06:19:59.218Z,76.03
2018-05-29T06:20:59.202Z,75.45
2018-05-29T06:21:59.189Z,75.54
2018-05-29T06:22:59.181Z,75.64
2018-05-29T06:23:59.168Z,74.96
2018-05-29T06:24:59.156Z,75.45
2018-05-29T06:25:59.145Z,75.20
2018-05-29T06:26:59.139Z,74.90
2018-05-29T06:27:59.122Z,75.39
2018-05-29T06:28:59.113Z,75.48
2018-05-29T06:29:59.101Z,74.81
2018-05-29T06:30:59.091Z,74.42
2018-05-29T06:31:59.077Z,75.00
2018-05-29T06:32:59.069Z,75.20
2018-05-29T06:33:59.055Z,75.39
2018-05-29T06:34:59.040Z,75.10
2018-05-29T06:35:59.037Z,74.52
2018-05-29T06:36:59.018Z,74.36
2018-05-29T06:37:59.010Z,74.55
2018-05-29T06:38:59.098Z,74.55
2018-05-29T06:39:58.987Z,73.78
2018-05-29T06:40:58.974Z,73.88
2018-05-29T06:41:58.966Z,73.68
2018-05-29T06:42:58.957Z,74.07
2018-05-29T06:43:58.943Z,73.78
2018-05-29T06:44:58.989Z,73.88
2018-05-29T06:45:58.920Z,75.17
2018-05-29T06:46:58.909Z,73.63
2018-05-29T06:47:58.901Z,72.95
2018-05-29T06:48:58.885Z,74.01
2018-05-29T06:49:58.878Z,73.33
2018-05-29T06:50:58.866Z,72.95
2018-05-29T06:51:58.850Z,73.82
2018-05-29T06:52:58.845Z,73.04
2018-05-29T06:53:58.840Z,73.14
2018-05-29T06:54:58.920Z,72.85
2018-05-29T06:55:58.810Z,72.27
2018-05-29T06:56:58.800Z,72.50
2018-05-29T06:57:58.790Z,71.59
2018-05-29T06:58:58.781Z,72.85
2018-05-29T06:59:58.770Z,72.11
2018-05-29T07:00:58.761Z,72.69
2018-05-29T07:01:58.746Z,72.21
2018-05-29T07:02:58.735Z,72.40
2018-05-29T07:03:58.728Z,72.69
2018-05-29T07:04:58.716Z,72.79
2018-05-29T07:05:58.703Z,71.44
2018-05-29T07:06:58.735Z,71.92
2018-05-29T07:07:58.680Z,71.62
2018-05-29T07:08:58.680Z,71.82
2018-05-29T07:09:58.659Z,72.44
2018-05-29T07:10:58.649Z,71.95
2018-05-29T07:11:58.641Z,71.47
2018-05-29T07:12:58.639Z,69.92
2018-05-29T07:13:58.618Z,69.15
2018-05-29T07:14:58.613Z,69.05
2018-05-29T07:15:58.738Z,68.76
2018-05-29T07:16:58.591Z,68.99
2018-05-29T07:17:58.580Z,68.89
2018-05-29T07:18:58.715Z,68.60
2018-05-29T07:19:58.585Z,68.12
2018-05-29T07:20:58.547Z,68.21
2018-05-29T07:21:58.539Z,67.63
2018-05-29T07:22:58.530Z,68.79
2018-05-29T07:23:58.511Z,67.72
2018-05-29T07:24:58.501Z,67.63
2018-05-29T07:25:58.491Z,67.92
2018-05-29T07:26:58.480Z,66.47
2018-05-29T07:27:58.477Z,66.11
2018-05-29T07:28:58.460Z,66.50
2018-05-29T07:29:58.461Z,67.37
2018-05-29T07:30:58.438Z,67.27
2018-05-29T07:31:58.431Z,66.99
2018-05-29T07:32:58.419Z,67.27
2018-05-29T07:33:58.405Z,66.30
2018-05-29T07:34:58.398Z,65.95
2018-05-29T07:35:58.388Z,65.72
2018-05-29T07:36:58.384Z,66.02
2018-05-29T07:37:58.368Z,65.92
2018-05-29T07:38:58.396Z,66.40
2018-05-29T07:39:58.354Z,66.05
2018-05-29T07:40:58.335Z,65.37
2018-05-29T07:41:58.322Z,65.37
2018-05-29T07:42:58.320Z,65.56
2018-05-29T07:43:58.304Z,66.14
2018-05-29T07:44:58.290Z,65.17
2018-05-29T07:45:58.287Z,65.37
2018-05-29T07:46:58.277Z,65.56
2018-05-29T07:47:58.265Z,65.56
2018-05-29T07:48:58.255Z,65.89
2018-05-29T07:49:58.240Z,65.01
2018-05-29T07:50:58.288Z,65.20
2018-05-29T07:51:58.250Z,65.01
2018-05-29T07:52:58.210Z,64.53
2018-05-29T07:53:58.207Z,65.05
2018-05-29T07:54:58.188Z,64.17
2018-05-29T07:55:58.183Z,64.46
2018-05-29T07:56:58.174Z,63.49
2018-05-29T07:57:58.162Z,64.26
2018-05-29T07:58:58.154Z,63.10
2018-05-29T07:59:58.139Z,62.52
2018-05-29T08:00:58.133Z,63.13
2018-05-29T08:01:58.126Z,63.39
2018-05-29T08:02:58.112Z,62.65
2018-05-29T08:03:58.103Z,63.04
2018-05-29T08:04:58.095Z,62.26
2018-05-29T08:05:58.090Z,62.35
2018-05-29T08:06:58.073Z,61.29
2018-05-29T08:07:58.107Z,61.29
2018-05-29T08:08:58.179Z,60.90
2018-05-29T08:09:58.045Z,61.09
2018-05-29T08:10:58.044Z,61.19
2018-05-29T08:11:58.124Z,61.29
2018-05-29T08:12:58.018Z,61.38
2018-05-29T08:13:58.011Z,61.71
2018-05-29T08:14:57.993Z,61.32
2018-05-29T08:15:57.987Z,60.31
2018-05-29T08:16:57.976Z,61.32
2018-05-29T08:17:57.975Z,61.48
2018-05-29T08:18:57.962Z,61.41
2018-05-29T08:19:57.952Z,61.41
2018-05-29T08:20:57.940Z,61.12
2018-05-29T08:21:57.930Z,62.19
2018-05-29T08:22:57.924Z,61.12
2018-05-29T08:23:57.912Z,61.02
2018-05-29T08:24:57.927Z,61.09
2018-05-29T08:25:57.892Z,61.29
2018-05-29T08:26:57.886Z,61.48
2018-05-29T08:27:57.937Z,62.07
2018-05-29T08:28:57.869Z,61.61
2018-05-29T08:29:57.866Z,62.19
2018-05-29T08:30:57.865Z,61.71
2018-05-29T08:31:57.837Z,61.32
2018-05-29T08:32:57.829Z,62.48
2018-05-29T08:33:57.824Z,62.19
2018-05-29T08:34:57.820Z,61.41
2018-05-29T08:35:57.800Z,62.58
2018-05-29T08:36:57.792Z,61.12
2018-05-29T08:37:57.786Z,61.51
2018-05-29T08:38:57.779Z,61.61
2018-05-29T08:39:57.764Z,61.41
2018-05-29T08:40:57.901Z,61.41
2018-05-29T08:41:57.760Z,62.00
2018-05-29T08:42:57.741Z,61.51
2018-05-29T08:43:57.836Z,61.15
2018-05-29T08:44:57.719Z,62.23
2018-05-29T08:45:57.711Z,60.77
2018-05-29T08:46:57.701Z,60.38
2018-05-29T08:47:57.693Z,61.44
2018-05-29T08:48:57.686Z,61.35
2018-05-29T08:49:57.678Z,60.38
2018-05-29T08:50:57.665Z,60.08
2018-05-29T08:51:57.651Z,60.38
2018-05-29T08:52:57.644Z,60.50
2018-05-29T08:53:57.639Z,60.70
2018-05-29T08:54:57.627Z,58.36
2018-05-29T08:55:57.617Z,57.87
2018-05-29T08:56:57.654Z,57.00
2018-05-29T08:57:57.604Z,56.41
2018-05-29T08:58:57.594Z,56.32
2018-05-29T08:59:57.583Z,56.61
2018-05-29T09:00:57.573Z,57.20
2018-05-29T09:01:57.567Z,56.41
2018-05-29T09:02:57.559Z,57.29
2018-05-29T09:03:57.580Z,58.10
2018-05-29T09:04:57.617Z,56.84
2018-05-29T09:05:57.530Z,56.35
2018-05-29T09:06:57.524Z,56.35
2018-05-29T09:07:57.563Z,57.51
2018-05-29T09:08:57.506Z,57.71
2018-05-29T09:09:57.494Z,57.42
2018-05-29T09:10:57.500Z,56.64
2018-05-29T09:11:57.514Z,57.22
2018-05-29T09:12:57.468Z,57.71
2018-05-29T09:13:57.464Z,57.12
2018-05-29T09:14:57.454Z,57.32
2018-05-29T09:15:57.452Z,57.10
2018-05-29T09:16:57.434Z,57.20
2018-05-29T09:17:57.440Z,57.10
2018-05-29T09:18:57.418Z,57.29
2018-05-29T09:19:57.430Z,56.35
2018-05-29T09:20:57.449Z,57.42
2018-05-29T09:21:57.392Z,57.03
2018-05-29T09:22:57.382Z,56.74
2018-05-29T09:23:57.375Z,57.42
2018-05-29T09:24:57.372Z,57.06
2018-05-29T09:25:57.386Z,57.15
2018-05-29T09:26:57.361Z,57.06
2018-05-29T09:27:57.341Z,56.09
2018-05-29T09:28:57.343Z,55.43
2018-05-29T09:29:57.405Z,55.04
2018-05-29T09:30:57.315Z,53.67
2018-05-29T09:31:57.370Z,53.36
2018-05-29T09:32:57.299Z,54.43
2018-05-29T09:33:57.293Z,54.65
2018-05-29T09:34:57.280Z,53.48
2018-05-29T09:35:57.272Z,54.06
2018-05-29T09:36:57.266Z,54.06
2018-05-29T09:37:57.259Z,53.48
2018-05-29T09:38:57.251Z,54.16
2018-05-29T09:39:57.241Z,53.58
2018-05-29T09:40:57.232Z,53.87
2018-05-29T09:41:57.222Z,53.38
2018-05-29T09:42:57.224Z,54.19
2018-05-29T09:43:57.207Z,53.80
2018-05-29T09:44:57.205Z,53.50
2018-05-29T09:45:57.211Z,52.83
2018-05-29T09:46:57.180Z,51.95
2018-05-29T09:47:57.181Z,50.87
2018-05-29T09:48:57.165Z,52.63
2018-05-29T09:49:57.162Z,51.53
2018-05-29T09:50:57.150Z,51.63
2018-05-29T09:51:57.140Z,51.92
2018-05-29T09:52:57.162Z,51.53
2018-05-29T09:53:57.126Z,52.53
2018-05-29T09:54:57.119Z,52.44
2018-05-29T09:55:57.107Z,51.17
2018-05-29T09:56:57.099Z,51.75
2018-05-29T09:57:57.147Z,51.75
2018-05-29T09:58:57.088Z,51.56
2018-05-29T09:59:57.076Z,52.44
2018-05-29T10:00:57.072Z,53.02
2018-05-29T10:01:57.065Z,51.58
2018-05-29T10:02:57.052Z,50.48
2018-05-29T10:03:57.040Z,50.48
2018-05-29T10:04:57.036Z,51.36
2018-05-29T10:05:57.027Z,51.46
2018-05-29T10:06:57.127Z,51.56
2018-05-29T10:07:57.007Z,51.75
2018-05-29T10:08:57.000Z,51.95
2018-05-29T10:09:56.990Z,51.07
2018-05-29T10:10:56.987Z,50.97
2018-05-29T10:11:56.976Z,51.65
2018-05-29T10:12:56.971Z,52.73
2018-05-29T10:13:56.959Z,51.75
2018-05-29T10:14:56.950Z,50.87
2018-05-29T10:15:56.950Z,50.87
2018-05-29T10:16:56.946Z,51.46
2018-05-29T10:17:56.927Z,52.44
2018-05-29T10:18:56.930Z,52.46
2018-05-29T10:19:56.907Z,51.58
2018-05-29T10:20:56.901Z,50.99
2018-05-29T10:21:56.894Z,51.19
2018-05-29T10:22:56.886Z,51.56
2018-05-29T10:23:56.888Z,51.65
2018-05-29T10:24:56.869Z,52.66
2018-05-29T10:25:56.862Z,51.58
2018-05-29T10:26:56.857Z,52.07
2018-05-29T10:27:56.847Z,52.66
2018-05-29T10:28:56.855Z,51.58
2018-05-29T10:29:56.840Z,52.36
2018-05-29T10:30:56.884Z,52.19
2018-05-29T10:31:56.816Z,51.41
2018-05-29T10:32:56.816Z,51.70
2018-05-29T10:33:56.800Z,50.53
2018-05-29T10:34:56.794Z,50.80
2018-05-29T10:35:56.784Z,50.82
2018-05-29T10:36:56.782Z,50.82
2018-05-29T10:37:56.780Z,50.82
2018-05-29T10:38:56.763Z,50.82
2018-05-29T10:39:56.758Z,50.24
2018-05-29T10:40:56.746Z,50.82
2018-05-29T10:41:56.737Z,49.95
2018-05-29T10:42:56.730Z,49.95
2018-05-29T10:43:56.722Z,50.24
2018-05-29T10:44:56.736Z,49.95
2018-05-29T10:45:56.709Z,50.63
2018-05-29T10:46:56.697Z,50.53
2018-05-29T10:47:56.692Z,50.14
2018-05-29T10:48:56.684Z,50.04
2018-05-29T10:49:56.675Z,49.46
2018-05-29T10:50:56.669Z,49.66
2018-05-29T10:51:56.659Z,51.04
2018-05-29T10:52:56.650Z,49.27
2018-05-29T10:53:56.645Z,49.68
2018-05-29T10:54:56.634Z,50.46
2018-05-29T10:55:56.625Z,49.88
2018-05-29T10:56:56.623Z,50.26
2018-05-29T10:57:56.621Z,50.00
2018-05-29T10:58:56.606Z,49.19
2018-05-29T10:59:56.611Z,48.71
2018-05-29T11:00:56.593Z,48.22
2018-05-29T11:01:56.579Z,50.56
2018-05-29T11:02:56.586Z,50.46
2018-05-29T11:03:56.566Z,49.29
2018-05-29T11:04:56.561Z,48.32
2018-05-29T11:05:56.553Z,48.41
2018-05-29T11:06:56.580Z,49.10
2018-05-29T11:07:56.534Z,48.73
2018-05-29T11:08:56.529Z,49.61
2018-05-29T11:09:56.522Z,48.73
2018-05-29T11:10:56.519Z,47.95
2018-05-29T11:11:56.508Z,47.63
2018-05-29T11:12:56.497Z,47.53
2018-05-29T11:13:56.599Z,48.90
2018-05-29T11:14:56.485Z,48.61
2018-05-29T11:15:56.485Z,48.05
2018-05-29T11:16:56.468Z,47.95
2018-05-29T11:17:56.461Z,48.93
2018-05-29T11:18:56.458Z,48.93
2018-05-29T11:19:56.445Z,48.05
2018-05-29T11:20:56.439Z,47.83
2018-05-29T11:21:56.434Z,48.02
2018-05-29T11:22:56.426Z,48.51
2018-05-29T11:23:56.419Z,49.37
2018-05-29T11:24:56.407Z,49.98
2018-05-29T11:25:56.400Z,48.90
2018-05-29T11:26:56.542Z,49.98
2018-05-29T11:27:56.393Z,48.54
2018-05-29T11:28:56.391Z,46.48
2018-05-29T11:29:56.402Z,48.34
2018-05-29T11:30:56.368Z,48.63
2018-05-29T11:31:56.363Z,49.24
2018-05-29T11:32:56.352Z,48.75
2018-05-29T11:33:56.340Z,48.16
2018-05-29T11:34:56.344Z,47.87
2018-05-29T11:35:56.328Z,48.46
2018-05-29T11:36:56.320Z,47.48
2018-05-29T11:37:56.321Z,48.09
2018-05-29T11:38:56.305Z,48.58
2018-05-29T11:39:56.304Z,47.70
2018-05-29T11:40:56.290Z,47.38
2018-05-29T11:41:56.288Z,47.77
2018-05-29T11:42:56.280Z,48.75
2018-05-29T11:43:56.280Z,48.85
2018-05-29T11:44:56.265Z,48.55
2018-05-29T11:45:56.262Z,47.97
2018-05-29T11:46:56.250Z,47.77
2018-05-29T11:47:56.242Z,46.60
2018-05-29T11:48:56.233Z,46.99
2018-05-29T11:49:56.230Z,46.41
2018-05-29T11:50:56.275Z,47.48
2018-05-29T11:51:56.211Z,46.88
2018-05-29T11:52:56.214Z,46.39
2018-05-29T11:53:56.202Z,48.44
2018-05-29T11:54:56.223Z,47.56
2018-05-29T11:55:56.207Z,48.05
2018-05-29T11:56:56.193Z,48.41
2018-05-29T11:57:56.171Z,48.80
2018-05-29T11:58:56.168Z,49.19
2018-05-29T11:59:56.162Z,49.07
2018-05-29T12:00:56.269Z,49.66
2018-05-29T12:01:56.145Z,50.04
2018-05-29T12:02:56.136Z,49.76
2018-05-29T12:03:56.128Z,50.26
2018-05-29T12:04:56.120Z,49.19
2018-05-29T12:05:56.116Z,50.36
2018-05-29T12:06:56.109Z,51.43
2018-05-29T12:07:56.102Z,49.80
2018-05-29T12:08:56.090Z,50.12
2018-05-29T12:09:56.087Z,49.92
2018-05-29T12:10:56.181Z,49.33
2018-05-29T12:11:56.070Z,49.43
2018-05-29T12:12:56.062Z,47.50
2018-05-29T12:13:56.055Z,49.16
2018-05-29T12:14:56.046Z,48.38
2018-05-29T12:15:56.053Z,47.50
2018-05-29T12:16:56.095Z,47.89
2018-05-29T12:17:56.036Z,49.48
2018-05-29T12:18:56.018Z,46.43
2018-05-29T12:19:56.012Z,46.62
2018-05-29T12:20:56.008Z,46.62
2018-05-29T12:21:55.996Z,47.70
2018-05-29T12:22:55.995Z,47.41
2018-05-29T12:23:55.981Z,46.62
2018-05-29T12:24:55.994Z,47.89
2018-05-29T12:25:55.975Z,48.58
2018-05-29T12:26:55.967Z,47.60
2018-05-29T12:27:55.952Z,48.38
2018-05-29T12:28:55.959Z,47.60
2018-05-29T12:29:55.950Z,46.43
2018-05-29T12:30:55.945Z,46.72
2018-05-29T12:31:55.928Z,47.63
2018-05-29T12:32:55.983Z,46.75
2018-05-29T12:33:55.922Z,46.33
2018-05-29T12:34:55.906Z,46.53
2018-05-29T12:35:55.910Z,46.82
2018-05-29T12:36:55.893Z,47.41
2018-05-29T12:37:55.943Z,48.28
2018-05-29T12:38:55.879Z,47.89
2018-05-29T12:39:55.874Z,49.75
2018-05-29T12:40:55.868Z,48.48
2018-05-29T12:41:55.859Z,47.99
2018-05-29T12:42:55.850Z,48.07
2018-05-29T12:43:55.841Z,48.63
2018-05-29T12:44:55.841Z,49.32
2018-05-29T12:45:55.838Z,49.32
2018-05-29T12:46:55.823Z,49.88
2018-05-29T12:47:55.915Z,49.58
2018-05-29T12:48:55.819Z,49.68
2018-05-29T12:49:55.802Z,49.19
2018-05-29T12:50:55.794Z,49.68
2018-05-29T12:51:55.791Z,48.51